sensor_id;sensor_type;location;lat;lon;timestamp;P1;durP1;ratioP1;P2;durP2;ratioP2
72404;SDS011;60395;52.020;113.548;2023-05-10T00:00:31;38.33;;;28.02;;
72404;SDS011;60395;52.020;113.548;2023-05-10T00:03:34;42.53;;;28.15;;
72404;SDS011;60395;52.020;113.548;2023-05-10T00:06:38;35.22;;;26.88;;
72404;SDS011;60395;52.020;113.548;2023-05-10T00:09:41;105.75;;;32.13;;
72404;SDS011;60395;52.020;113.548;2023-05-10T00:12:44;51.58;;;30.73;;
72404;SDS011;60395;52.020;113.548;2023-05-10T00:15:47;56.15;;;30.58;;
72404;SDS011;60395;52.020;113.548;2023-05-10T00:18:51;47.78;;;29.92;;
72404;SDS011;60395;52.020;113.548;2023-05-10T00:21:54;54.15;;;32.53;;
72404;SDS011;60395;52.020;113.548;2023-05-10T00:24:58;40.47;;;28.90;;
72404;SDS011;60395;52.020;113.548;2023-05-10T00:28:01;46.22;;;30.13;;
72404;SDS011;60395;52.020;113.548;2023-05-10T00:34:07;41.70;;;27.42;;
72404;SDS011;60395;52.020;113.548;2023-05-10T00:37:11;31.60;;;25.02;;
72404;SDS011;60395;52.020;113.548;2023-05-10T00:40:14;32.90;;;25.73;;
72404;SDS011;60395;52.020;113.548;2023-05-10T00:43:22;52.33;;;25.27;;
72404;SDS011;60395;52.020;113.548;2023-05-10T00:46:26;35.38;;;24.02;;
72404;SDS011;60395;52.020;113.548;2023-05-10T00:49:29;34.38;;;24.10;;
72404;SDS011;60395;52.020;113.548;2023-05-10T00:55:37;40.70;;;23.98;;
72404;SDS011;60395;52.020;113.548;2023-05-10T00:58:40;24.73;;;21.48;;
72404;SDS011;60395;52.020;113.548;2023-05-10T01:01:47;35.03;;;22.88;;
72404;SDS011;60395;52.020;113.548;2023-05-10T01:04:50;31.00;;;22.92;;
72404;SDS011;60395;52.020;113.548;2023-05-10T01:07:54;36.10;;;23.08;;
72404;SDS011;60395;52.020;113.548;2023-05-10T01:10:59;38.00;;;23.17;;
72404;SDS011;60395;52.020;113.548;2023-05-10T01:14:02;35.47;;;23.05;;
72404;SDS011;60395;52.020;113.548;2023-05-10T01:17:06;32.42;;;21.90;;
72404;SDS011;60395;52.020;113.548;2023-05-10T01:20:11;36.72;;;22.58;;
72404;SDS011;60395;52.020;113.548;2023-05-10T01:37:25;27.35;;;20.25;;
72404;SDS011;60395;52.020;113.548;2023-05-10T01:40:39;29.05;;;20.85;;
72404;SDS011;60395;52.020;113.548;2023-05-10T01:44:34;32.42;;;20.83;;
72404;SDS011;60395;52.020;113.548;2023-05-10T01:47:38;26.92;;;20.10;;
72404;SDS011;60395;52.020;113.548;2023-05-10T01:50:45;28.98;;;19.92;;
72404;SDS011;60395;52.020;113.548;2023-05-10T01:53:51;28.42;;;18.92;;
72404;SDS011;60395;52.020;113.548;2023-05-10T01:57:02;27.67;;;20.15;;
72404;SDS011;60395;52.020;113.548;2023-05-10T02:00:09;31.00;;;19.63;;
72404;SDS011;60395;52.020;113.548;2023-05-10T02:03:14;29.48;;;18.58;;
72404;SDS011;60395;52.020;113.548;2023-05-10T02:06:21;26.55;;;18.67;;
72404;SDS011;60395;52.020;113.548;2023-05-10T02:09:26;27.67;;;18.63;;
72404;SDS011;60395;52.020;113.548;2023-05-10T02:12:35;26.92;;;18.55;;
72404;SDS011;60395;52.020;113.548;2023-05-10T02:15:40;27.40;;;18.73;;
72404;SDS011;60395;52.020;113.548;2023-05-10T02:18:45;28.52;;;18.67;;
72404;SDS011;60395;52.020;113.548;2023-05-10T02:21:52;31.45;;;18.90;;
72404;SDS011;60395;52.020;113.548;2023-05-10T02:24:56;24.15;;;17.95;;
72404;SDS011;60395;52.020;113.548;2023-05-10T02:28:02;28.58;;;17.75;;
72404;SDS011;60395;52.020;113.548;2023-05-10T02:31:10;23.77;;;17.05;;
72404;SDS011;60395;52.020;113.548;2023-05-10T02:34:14;23.77;;;18.45;;
72404;SDS011;60395;52.020;113.548;2023-05-10T02:37:20;31.30;;;18.23;;
72404;SDS011;60395;52.020;113.548;2023-05-10T02:40:24;22.73;;;17.38;;
72404;SDS011;60395;52.020;113.548;2023-05-10T02:43:30;23.83;;;17.20;;
72404;SDS011;60395;52.020;113.548;2023-05-10T02:46:36;20.85;;;16.85;;
72404;SDS011;60395;52.020;113.548;2023-05-10T02:49:40;24.20;;;18.05;;
72404;SDS011;60395;52.020;113.548;2023-05-10T02:52:46;26.77;;;16.77;;
72404;SDS011;60395;52.020;113.548;2023-05-10T02:55:54;20.63;;;16.67;;
72404;SDS011;60395;52.020;113.548;2023-05-10T02:59:02;25.15;;;16.95;;
72404;SDS011;60395;52.020;113.548;2023-05-10T03:02:05;20.75;;;16.52;;
72404;SDS011;60395;52.020;113.548;2023-05-10T03:05:09;24.42;;;16.58;;
72404;SDS011;60395;52.020;113.548;2023-05-10T03:08:12;20.63;;;16.52;;
72404;SDS011;60395;52.020;113.548;2023-05-10T03:15:09;19.98;;;16.15;;
72404;SDS011;60395;52.020;113.548;2023-05-10T03:18:28;19.67;;;15.77;;
72404;SDS011;60395;52.020;113.548;2023-05-10T03:21:35;17.40;;;12.75;;
72404;SDS011;60395;52.020;113.548;2023-05-10T03:24:44;21.85;;;15.82;;
72404;SDS011;60395;52.020;113.548;2023-05-10T03:27:50;20.80;;;15.88;;
72404;SDS011;60395;52.020;113.548;2023-05-10T03:30:56;27.40;;;15.95;;
72404;SDS011;60395;52.020;113.548;2023-05-10T03:34:02;20.00;;;15.25;;
72404;SDS011;60395;52.020;113.548;2023-05-10T03:37:05;20.48;;;14.80;;
72404;SDS011;60395;52.020;113.548;2023-05-10T03:40:09;21.48;;;15.60;;
72404;SDS011;60395;52.020;113.548;2023-05-10T03:43:15;23.80;;;16.05;;
72404;SDS011;60395;52.020;113.548;2023-05-10T03:46:19;20.30;;;14.02;;
72404;SDS011;60395;52.020;113.548;2023-05-10T03:49:22;19.65;;;14.63;;
72404;SDS011;60395;52.020;113.548;2023-05-10T03:52:25;20.42;;;14.70;;
72404;SDS011;60395;52.020;113.548;2023-05-10T03:55:29;20.50;;;14.30;;
72404;SDS011;60395;52.020;113.548;2023-05-10T03:58:32;22.17;;;14.13;;
72404;SDS011;60395;52.020;113.548;2023-05-10T04:01:36;19.52;;;14.48;;
72404;SDS011;60395;52.020;113.548;2023-05-10T04:04:39;22.63;;;13.75;;
72404;SDS011;60395;52.020;113.548;2023-05-10T04:07:42;22.58;;;15.50;;
72404;SDS011;60395;52.020;113.548;2023-05-10T04:10:46;18.27;;;14.35;;
72404;SDS011;60395;52.020;113.548;2023-05-10T04:13:49;18.90;;;14.95;;
72404;SDS011;60395;52.020;113.548;2023-05-10T04:16:53;38.60;;;24.43;;
72404;SDS011;60395;52.020;113.548;2023-05-10T04:19:56;20.15;;;15.13;;
72404;SDS011;60395;52.020;113.548;2023-05-10T04:22:59;21.15;;;15.23;;
72404;SDS011;60395;52.020;113.548;2023-05-10T04:26:03;18.73;;;14.13;;
72404;SDS011;60395;52.020;113.548;2023-05-10T04:29:06;21.88;;;14.25;;
72404;SDS011;60395;52.020;113.548;2023-05-10T04:32:09;19.00;;;13.10;;
72404;SDS011;60395;52.020;113.548;2023-05-10T04:35:12;17.63;;;13.15;;
72404;SDS011;60395;52.020;113.548;2023-05-10T04:41:20;18.48;;;12.68;;
72404;SDS011;60395;52.020;113.548;2023-05-10T04:44:23;16.83;;;12.43;;
72404;SDS011;60395;52.020;113.548;2023-05-10T04:47:26;17.90;;;12.93;;
72404;SDS011;60395;52.020;113.548;2023-05-10T04:50:30;22.83;;;12.70;;
72404;SDS011;60395;52.020;113.548;2023-05-10T04:53:33;16.77;;;11.95;;
72404;SDS011;60395;52.020;113.548;2023-05-10T04:56:36;14.10;;;11.23;;
72404;SDS011;60395;52.020;113.548;2023-05-10T04:59:39;13.82;;;11.82;;
72404;SDS011;60395;52.020;113.548;2023-05-10T05:02:43;17.15;;;12.52;;
72404;SDS011;60395;52.020;113.548;2023-05-10T05:05:48;14.43;;;11.40;;
72404;SDS011;60395;52.020;113.548;2023-05-10T05:08:51;13.57;;;10.82;;
72404;SDS011;60395;52.020;113.548;2023-05-10T05:11:55;13.98;;;9.48;;
72404;SDS011;60395;52.020;113.548;2023-05-10T05:14:58;12.63;;;7.18;;
72404;SDS011;60395;52.020;113.548;2023-05-10T05:18:01;31.67;;;9.57;;
72404;SDS011;60395;52.020;113.548;2023-05-10T05:21:17;13.35;;;7.90;;
72404;SDS011;60395;52.020;113.548;2023-05-10T05:24:21;13.82;;;7.90;;
72404;SDS011;60395;52.020;113.548;2023-05-10T05:27:24;9.82;;;7.15;;
72404;SDS011;60395;52.020;113.548;2023-05-10T05:30:30;10.52;;;6.78;;
72404;SDS011;60395;52.020;113.548;2023-05-10T05:33:33;12.02;;;6.68;;
72404;SDS011;60395;52.020;113.548;2023-05-10T05:36:37;8.93;;;6.30;;
72404;SDS011;60395;52.020;113.548;2023-05-10T05:39:43;9.73;;;6.55;;
72404;SDS011;60395;52.020;113.548;2023-05-10T05:42:46;10.20;;;6.72;;
72404;SDS011;60395;52.020;113.548;2023-05-10T05:45:51;14.75;;;6.95;;
72404;SDS011;60395;52.020;113.548;2023-05-10T05:48:56;12.23;;;6.90;;
72404;SDS011;60395;52.020;113.548;2023-05-10T05:52:00;14.07;;;6.93;;
72404;SDS011;60395;52.020;113.548;2023-05-10T05:55:04;10.57;;;6.88;;
72404;SDS011;60395;52.020;113.548;2023-05-10T05:58:08;15.23;;;7.47;;
72404;SDS011;60395;52.020;113.548;2023-05-10T06:01:11;12.40;;;6.07;;
72404;SDS011;60395;52.020;113.548;2023-05-10T06:04:14;8.10;;;5.47;;
72404;SDS011;60395;52.020;113.548;2023-05-10T06:07:19;16.48;;;6.15;;
72404;SDS011;60395;52.020;113.548;2023-05-10T06:10:22;12.15;;;5.97;;
72404;SDS011;60395;52.020;113.548;2023-05-10T06:13:27;11.02;;;6.22;;
72404;SDS011;60395;52.020;113.548;2023-05-10T06:16:34;10.18;;;5.57;;
72404;SDS011;60395;52.020;113.548;2023-05-10T06:19:38;9.73;;;6.27;;
72404;SDS011;60395;52.020;113.548;2023-05-10T06:22:41;81.32;;;8.95;;
72404;SDS011;60395;52.020;113.548;2023-05-10T06:25:44;17.27;;;7.10;;
72404;SDS011;60395;52.020;113.548;2023-05-10T06:28:47;13.48;;;6.85;;
72404;SDS011;60395;52.020;113.548;2023-05-10T06:31:51;10.03;;;7.30;;
72404;SDS011;60395;52.020;113.548;2023-05-10T06:34:54;12.30;;;6.65;;
72404;SDS011;60395;52.020;113.548;2023-05-10T06:37:57;9.45;;;6.75;;
72404;SDS011;60395;52.020;113.548;2023-05-10T06:41:00;14.07;;;7.00;;
72404;SDS011;60395;52.020;113.548;2023-05-10T06:44:04;10.88;;;7.28;;
72404;SDS011;60395;52.020;113.548;2023-05-10T06:47:07;14.00;;;7.37;;
72404;SDS011;60395;52.020;113.548;2023-05-10T06:50:10;13.15;;;7.22;;
72404;SDS011;60395;52.020;113.548;2023-05-10T06:53:14;11.93;;;7.47;;
72404;SDS011;60395;52.020;113.548;2023-05-10T06:56:17;10.02;;;7.75;;
72404;SDS011;60395;52.020;113.548;2023-05-10T06:59:23;33.08;;;8.95;;
72404;SDS011;60395;52.020;113.548;2023-05-10T07:02:27;11.95;;;8.55;;
72404;SDS011;60395;52.020;113.548;2023-05-10T07:05:31;16.23;;;8.77;;
72404;SDS011;60395;52.020;113.548;2023-05-10T07:08:34;20.33;;;8.93;;
72404;SDS011;60395;52.020;113.548;2023-05-10T07:11:37;13.68;;;8.27;;
72404;SDS011;60395;52.020;113.548;2023-05-10T07:14:41;12.00;;;7.95;;
72404;SDS011;60395;52.020;113.548;2023-05-10T07:17:44;10.73;;;7.85;;
72404;SDS011;60395;52.020;113.548;2023-05-10T07:20:48;12.02;;;8.20;;
72404;SDS011;60395;52.020;113.548;2023-05-10T07:23:51;17.13;;;8.25;;
72404;SDS011;60395;52.020;113.548;2023-05-10T07:26:54;9.50;;;8.25;;
72404;SDS011;60395;52.020;113.548;2023-05-10T07:29:57;11.98;;;8.13;;
72404;SDS011;60395;52.020;113.548;2023-05-10T07:33:01;10.43;;;7.90;;
72404;SDS011;60395;52.020;113.548;2023-05-10T07:36:04;9.85;;;8.57;;
72404;SDS011;60395;52.020;113.548;2023-05-10T07:39:07;12.67;;;7.93;;
72404;SDS011;60395;52.020;113.548;2023-05-10T07:42:13;11.23;;;8.00;;
72404;SDS011;60395;52.020;113.548;2023-05-10T07:45:17;11.70;;;7.77;;
72404;SDS011;60395;52.020;113.548;2023-05-10T07:48:20;11.25;;;7.78;;
72404;SDS011;60395;52.020;113.548;2023-05-10T07:51:23;10.40;;;7.65;;
72404;SDS011;60395;52.020;113.548;2023-05-10T07:54:26;13.40;;;8.13;;
72404;SDS011;60395;52.020;113.548;2023-05-10T07:57:30;15.43;;;7.50;;
72404;SDS011;60395;52.020;113.548;2023-05-10T08:00:33;12.83;;;8.10;;
72404;SDS011;60395;52.020;113.548;2023-05-10T08:03:36;11.07;;;7.93;;
72404;SDS011;60395;52.020;113.548;2023-05-10T08:06:40;9.07;;;7.10;;
72404;SDS011;60395;52.020;113.548;2023-05-10T08:09:43;9.85;;;7.57;;
72404;SDS011;60395;52.020;113.548;2023-05-10T08:12:47;13.93;;;8.13;;
72404;SDS011;60395;52.020;113.548;2023-05-10T08:15:50;12.43;;;7.90;;
72404;SDS011;60395;52.020;113.548;2023-05-10T08:18:55;10.00;;;8.30;;
72404;SDS011;60395;52.020;113.548;2023-05-10T08:21:58;11.70;;;7.80;;
72404;SDS011;60395;52.020;113.548;2023-05-10T08:25:02;13.73;;;7.95;;
72404;SDS011;60395;52.020;113.548;2023-05-10T08:28:05;14.07;;;8.73;;
72404;SDS011;60395;52.020;113.548;2023-05-10T08:31:14;12.32;;;7.82;;
72404;SDS011;60395;52.020;113.548;2023-05-10T08:37:25;15.80;;;8.27;;
72404;SDS011;60395;52.020;113.548;2023-05-10T08:40:28;12.80;;;7.65;;
72404;SDS011;60395;52.020;113.548;2023-05-10T08:43:32;14.68;;;7.75;;
72404;SDS011;60395;52.020;113.548;2023-05-10T08:46:38;15.68;;;7.70;;
72404;SDS011;60395;52.020;113.548;2023-05-10T08:49:49;9.40;;;7.28;;
72404;SDS011;60395;52.020;113.548;2023-05-10T08:52:54;10.45;;;7.75;;
72404;SDS011;60395;52.020;113.548;2023-05-10T08:56:02;10.77;;;8.23;;
72404;SDS011;60395;52.020;113.548;2023-05-10T08:59:06;9.77;;;7.35;;
72404;SDS011;60395;52.020;113.548;2023-05-10T09:02:10;9.63;;;7.30;;
72404;SDS011;60395;52.020;113.548;2023-05-10T09:05:19;11.95;;;7.97;;
72404;SDS011;60395;52.020;113.548;2023-05-10T09:08:23;14.53;;;8.90;;
72404;SDS011;60395;52.020;113.548;2023-05-10T09:11:28;19.55;;;8.23;;
72404;SDS011;60395;52.020;113.548;2023-05-10T09:14:32;16.35;;;8.07;;
72404;SDS011;60395;52.020;113.548;2023-05-10T09:17:38;11.93;;;7.80;;
72404;SDS011;60395;52.020;113.548;2023-05-10T09:20:43;14.93;;;8.27;;
72404;SDS011;60395;52.020;113.548;2023-05-10T09:23:47;24.97;;;7.83;;
72404;SDS011;60395;52.020;113.548;2023-05-10T09:26:52;16.15;;;7.50;;
72404;SDS011;60395;52.020;113.548;2023-05-10T09:29:55;13.05;;;7.05;;
72404;SDS011;60395;52.020;113.548;2023-05-10T09:32:59;12.43;;;7.18;;
72404;SDS011;60395;52.020;113.548;2023-05-10T09:36:07;12.13;;;7.00;;
72404;SDS011;60395;52.020;113.548;2023-05-10T09:39:11;22.60;;;7.20;;
72404;SDS011;60395;52.020;113.548;2023-05-10T09:42:17;11.63;;;6.40;;
72404;SDS011;60395;52.020;113.548;2023-05-10T09:45:22;13.25;;;5.97;;
72404;SDS011;60395;52.020;113.548;2023-05-10T09:48:25;20.52;;;5.25;;
72404;SDS011;60395;52.020;113.548;2023-05-10T09:51:29;41.63;;;6.10;;
72404;SDS011;60395;52.020;113.548;2023-05-10T09:54:32;46.13;;;6.60;;
72404;SDS011;60395;52.020;113.548;2023-05-10T09:57:36;20.58;;;5.45;;
72404;SDS011;60395;52.020;113.548;2023-05-10T10:00:41;14.55;;;5.10;;
72404;SDS011;60395;52.020;113.548;2023-05-10T10:03:45;10.13;;;4.60;;
72404;SDS011;60395;52.020;113.548;2023-05-10T10:06:58;18.98;;;6.25;;
72404;SDS011;60395;52.020;113.548;2023-05-10T10:10:03;11.60;;;5.80;;
72404;SDS011;60395;52.020;113.548;2023-05-10T10:13:07;9.18;;;4.35;;
72404;SDS011;60395;52.020;113.548;2023-05-10T10:16:11;14.47;;;5.13;;
72404;SDS011;60395;52.020;113.548;2023-05-10T10:19:14;12.05;;;4.55;;
72404;SDS011;60395;52.020;113.548;2023-05-10T10:22:18;21.60;;;5.78;;
72404;SDS011;60395;52.020;113.548;2023-05-10T10:25:21;29.60;;;6.03;;
72404;SDS011;60395;52.020;113.548;2023-05-10T10:28:40;21.65;;;7.50;;
72404;SDS011;60395;52.020;113.548;2023-05-10T10:35:21;11.38;;;5.00;;
72404;SDS011;60395;52.020;113.548;2023-05-10T10:38:25;14.50;;;5.30;;
72404;SDS011;60395;52.020;113.548;2023-05-10T10:41:39;9.82;;;5.07;;
72404;SDS011;60395;52.020;113.548;2023-05-10T10:44:55;10.82;;;4.70;;
72404;SDS011;60395;52.020;113.548;2023-05-10T10:48:20;13.30;;;5.35;;
72404;SDS011;60395;52.020;113.548;2023-05-10T10:51:24;15.73;;;4.90;;
72404;SDS011;60395;52.020;113.548;2023-05-10T10:54:33;14.30;;;4.72;;
72404;SDS011;60395;52.020;113.548;2023-05-10T11:00:44;12.98;;;4.72;;
72404;SDS011;60395;52.020;113.548;2023-05-10T11:04:16;10.47;;;4.90;;
72404;SDS011;60395;52.020;113.548;2023-05-10T11:07:17;9.93;;;4.45;;
72404;SDS011;60395;52.020;113.548;2023-05-10T11:10:22;10.73;;;4.68;;
72404;SDS011;60395;52.020;113.548;2023-05-10T11:13:31;11.50;;;4.80;;
72404;SDS011;60395;52.020;113.548;2023-05-10T11:16:41;13.57;;;5.72;;
72404;SDS011;60395;52.020;113.548;2023-05-10T11:20:02;15.18;;;4.88;;
72404;SDS011;60395;52.020;113.548;2023-05-10T11:23:17;17.60;;;5.55;;
72404;SDS011;60395;52.020;113.548;2023-05-10T11:26:22;14.85;;;5.68;;
72404;SDS011;60395;52.020;113.548;2023-05-10T11:29:28;14.25;;;4.72;;
72404;SDS011;60395;52.020;113.548;2023-05-10T11:32:31;8.05;;;4.60;;
72404;SDS011;60395;52.020;113.548;2023-05-10T11:35:38;11.85;;;4.80;;
72404;SDS011;60395;52.020;113.548;2023-05-10T11:38:44;16.50;;;5.00;;
72404;SDS011;60395;52.020;113.548;2023-05-10T11:41:49;15.70;;;5.35;;
72404;SDS011;60395;52.020;113.548;2023-05-10T11:44:54;26.33;;;6.80;;
72404;SDS011;60395;52.020;113.548;2023-05-10T11:47:57;29.88;;;6.78;;
72404;SDS011;60395;52.020;113.548;2023-05-10T11:51:02;31.20;;;9.35;;
72404;SDS011;60395;52.020;113.548;2023-05-10T11:54:07;21.70;;;6.43;;
72404;SDS011;60395;52.020;113.548;2023-05-10T11:57:11;12.85;;;6.07;;
72404;SDS011;60395;52.020;113.548;2023-05-10T12:00:15;17.13;;;6.45;;
72404;SDS011;60395;52.020;113.548;2023-05-10T12:03:19;14.73;;;6.30;;
72404;SDS011;60395;52.020;113.548;2023-05-10T12:06:25;10.87;;;6.03;;
72404;SDS011;60395;52.020;113.548;2023-05-10T12:09:30;10.52;;;5.03;;
72404;SDS011;60395;52.020;113.548;2023-05-10T12:12:45;61.03;;;8.00;;
72404;SDS011;60395;52.020;113.548;2023-05-10T12:15:52;14.00;;;6.80;;
72404;SDS011;60395;52.020;113.548;2023-05-10T12:18:56;13.80;;;6.20;;
72404;SDS011;60395;52.020;113.548;2023-05-10T12:22:04;10.68;;;4.60;;
72404;SDS011;60395;52.020;113.548;2023-05-10T12:25:08;11.68;;;5.18;;
72404;SDS011;60395;52.020;113.548;2023-05-10T12:28:12;9.75;;;4.65;;
72404;SDS011;60395;52.020;113.548;2023-05-10T12:31:15;10.77;;;5.18;;
72404;SDS011;60395;52.020;113.548;2023-05-10T12:34:53;11.32;;;6.68;;
72404;SDS011;60395;52.020;113.548;2023-05-10T12:37:54;14.57;;;6.45;;
72404;SDS011;60395;52.020;113.548;2023-05-10T12:40:58;11.90;;;5.20;;
72404;SDS011;60395;52.020;113.548;2023-05-10T12:44:06;13.98;;;5.85;;
72404;SDS011;60395;52.020;113.548;2023-05-10T12:47:09;11.18;;;5.93;;
72404;SDS011;60395;52.020;113.548;2023-05-10T12:50:13;13.17;;;6.10;;
72404;SDS011;60395;52.020;113.548;2023-05-10T12:53:23;10.05;;;5.82;;
72404;SDS011;60395;52.020;113.548;2023-05-10T12:56:26;8.43;;;4.97;;
72404;SDS011;60395;52.020;113.548;2023-05-10T12:59:30;7.75;;;4.50;;
72404;SDS011;60395;52.020;113.548;2023-05-10T13:02:33;11.05;;;4.75;;
72404;SDS011;60395;52.020;113.548;2023-05-10T13:05:36;15.02;;;6.18;;
72404;SDS011;60395;52.020;113.548;2023-05-10T13:08:39;10.35;;;5.50;;
72404;SDS011;60395;52.020;113.548;2023-05-10T13:11:43;12.13;;;4.80;;
72404;SDS011;60395;52.020;113.548;2023-05-10T13:14:47;8.10;;;4.90;;
72404;SDS011;60395;52.020;113.548;2023-05-10T13:17:50;54.35;;;34.25;;
72404;SDS011;60395;52.020;113.548;2023-05-10T13:20:54;12.32;;;5.80;;
72404;SDS011;60395;52.020;113.548;2023-05-10T13:23:58;6.28;;;4.75;;
72404;SDS011;60395;52.020;113.548;2023-05-10T13:27:02;12.95;;;4.82;;
72404;SDS011;60395;52.020;113.548;2023-05-10T13:30:06;7.45;;;4.75;;
72404;SDS011;60395;52.020;113.548;2023-05-10T13:33:10;9.10;;;5.03;;
72404;SDS011;60395;52.020;113.548;2023-05-10T13:36:13;12.63;;;4.60;;
72404;SDS011;60395;52.020;113.548;2023-05-10T13:39:17;11.48;;;4.85;;
72404;SDS011;60395;52.020;113.548;2023-05-10T13:42:21;8.48;;;4.30;;
72404;SDS011;60395;52.020;113.548;2023-05-10T13:45:26;9.93;;;4.80;;
72404;SDS011;60395;52.020;113.548;2023-05-10T13:48:29;14.68;;;4.53;;
72404;SDS011;60395;52.020;113.548;2023-05-10T13:51:33;9.13;;;4.10;;
72404;SDS011;60395;52.020;113.548;2023-05-10T13:54:36;8.33;;;4.60;;
72404;SDS011;60395;52.020;113.548;2023-05-10T13:57:40;8.98;;;4.40;;
72404;SDS011;60395;52.020;113.548;2023-05-10T14:00:45;9.18;;;4.47;;
72404;SDS011;60395;52.020;113.548;2023-05-10T14:03:48;9.13;;;4.90;;
72404;SDS011;60395;52.020;113.548;2023-05-10T14:06:52;14.13;;;5.47;;
72404;SDS011;60395;52.020;113.548;2023-05-10T14:09:55;10.75;;;5.18;;
72404;SDS011;60395;52.020;113.548;2023-05-10T14:12:58;9.45;;;5.38;;
72404;SDS011;60395;52.020;113.548;2023-05-10T14:16:01;9.95;;;4.72;;
72404;SDS011;60395;52.020;113.548;2023-05-10T14:19:05;7.78;;;5.43;;
72404;SDS011;60395;52.020;113.548;2023-05-10T14:22:10;26.90;;;6.65;;
72404;SDS011;60395;52.020;113.548;2023-05-10T14:25:13;19.80;;;5.20;;
72404;SDS011;60395;52.020;113.548;2023-05-10T14:28:18;12.45;;;5.50;;
72404;SDS011;60395;52.020;113.548;2023-05-10T14:31:21;6.63;;;5.00;;
72404;SDS011;60395;52.020;113.548;2023-05-10T14:34:27;9.13;;;5.03;;
72404;SDS011;60395;52.020;113.548;2023-05-10T14:37:30;13.10;;;4.78;;
72404;SDS011;60395;52.020;113.548;2023-05-10T14:40:33;10.13;;;4.95;;
72404;SDS011;60395;52.020;113.548;2023-05-10T14:43:36;10.85;;;5.00;;
72404;SDS011;60395;52.020;113.548;2023-05-10T14:46:40;6.88;;;4.70;;
72404;SDS011;60395;52.020;113.548;2023-05-10T14:49:44;10.50;;;4.68;;
72404;SDS011;60395;52.020;113.548;2023-05-10T14:52:47;10.70;;;4.63;;
72404;SDS011;60395;52.020;113.548;2023-05-10T14:55:50;10.40;;;4.90;;
72404;SDS011;60395;52.020;113.548;2023-05-10T14:58:54;6.77;;;4.70;;
72404;SDS011;60395;52.020;113.548;2023-05-10T15:01:58;9.23;;;4.53;;
72404;SDS011;60395;52.020;113.548;2023-05-10T15:05:02;12.88;;;4.53;;
72404;SDS011;60395;52.020;113.548;2023-05-10T15:08:06;8.63;;;5.23;;
72404;SDS011;60395;52.020;113.548;2023-05-10T15:11:09;9.75;;;4.55;;
72404;SDS011;60395;52.020;113.548;2023-05-10T15:14:12;6.75;;;4.18;;
72404;SDS011;60395;52.020;113.548;2023-05-10T15:17:16;10.73;;;4.63;;
72404;SDS011;60395;52.020;113.548;2023-05-10T15:20:19;8.98;;;4.28;;
72404;SDS011;60395;52.020;113.548;2023-05-10T15:23:22;6.47;;;4.68;;
72404;SDS011;60395;52.020;113.548;2023-05-10T15:26:25;6.65;;;4.28;;
72404;SDS011;60395;52.020;113.548;2023-05-10T15:29:29;7.10;;;4.53;;
72404;SDS011;60395;52.020;113.548;2023-05-10T15:35:37;7.88;;;4.55;;
72404;SDS011;60395;52.020;113.548;2023-05-10T15:38:41;11.55;;;4.88;;
72404;SDS011;60395;52.020;113.548;2023-05-10T15:41:45;7.83;;;5.03;;
72404;SDS011;60395;52.020;113.548;2023-05-10T15:44:49;6.93;;;4.70;;
72404;SDS011;60395;52.020;113.548;2023-05-10T15:47:52;7.78;;;4.57;;
72404;SDS011;60395;52.020;113.548;2023-05-10T15:50:56;8.30;;;4.80;;
72404;SDS011;60395;52.020;113.548;2023-05-10T15:53:59;9.25;;;4.68;;
72404;SDS011;60395;52.020;113.548;2023-05-10T15:57:08;10.02;;;4.80;;
72404;SDS011;60395;52.020;113.548;2023-05-10T16:00:12;7.80;;;4.30;;
72404;SDS011;60395;52.020;113.548;2023-05-10T16:03:15;8.90;;;4.70;;
72404;SDS011;60395;52.020;113.548;2023-05-10T16:06:18;7.28;;;4.40;;
72404;SDS011;60395;52.020;113.548;2023-05-10T16:09:22;9.55;;;4.20;;
72404;SDS011;60395;52.020;113.548;2023-05-10T16:12:25;7.97;;;4.57;;
72404;SDS011;60395;52.020;113.548;2023-05-10T16:15:28;8.20;;;4.45;;
72404;SDS011;60395;52.020;113.548;2023-05-10T16:18:31;6.63;;;4.40;;
72404;SDS011;60395;52.020;113.548;2023-05-10T16:21:35;5.95;;;4.38;;
72404;SDS011;60395;52.020;113.548;2023-05-10T16:24:39;8.25;;;4.88;;
72404;SDS011;60395;52.020;113.548;2023-05-10T16:27:42;10.90;;;4.30;;
72404;SDS011;60395;52.020;113.548;2023-05-10T16:30:46;7.35;;;4.57;;
72404;SDS011;60395;52.020;113.548;2023-05-10T16:33:50;7.35;;;4.80;;
72404;SDS011;60395;52.020;113.548;2023-05-10T16:36:53;7.13;;;4.30;;
72404;SDS011;60395;52.020;113.548;2023-05-10T16:39:56;8.95;;;4.10;;
72404;SDS011;60395;52.020;113.548;2023-05-10T16:43:01;9.27;;;4.30;;
72404;SDS011;60395;52.020;113.548;2023-05-10T16:46:11;11.48;;;4.22;;
72404;SDS011;60395;52.020;113.548;2023-05-10T16:49:15;6.03;;;4.30;;
72404;SDS011;60395;52.020;113.548;2023-05-10T16:52:18;5.63;;;3.95;;
72404;SDS011;60395;52.020;113.548;2023-05-10T16:55:21;9.88;;;4.38;;
72404;SDS011;60395;52.020;113.548;2023-05-10T16:58:27;12.60;;;4.25;;
72404;SDS011;60395;52.020;113.548;2023-05-10T17:01:30;8.90;;;4.10;;
72404;SDS011;60395;52.020;113.548;2023-05-10T17:04:33;9.68;;;4.35;;
72404;SDS011;60395;52.020;113.548;2023-05-10T17:07:36;9.85;;;4.45;;
72404;SDS011;60395;52.020;113.548;2023-05-10T17:10:40;9.93;;;4.40;;
72404;SDS011;60395;52.020;113.548;2023-05-10T17:13:43;10.50;;;4.45;;
72404;SDS011;60395;52.020;113.548;2023-05-10T17:16:46;7.72;;;4.60;;
72404;SDS011;60395;52.020;113.548;2023-05-10T17:19:50;7.35;;;4.70;;
72404;SDS011;60395;52.020;113.548;2023-05-10T17:22:53;9.18;;;4.70;;
72404;SDS011;60395;52.020;113.548;2023-05-10T17:25:56;6.60;;;4.55;;
72404;SDS011;60395;52.020;113.548;2023-05-10T17:29:02;6.95;;;4.47;;
72404;SDS011;60395;52.020;113.548;2023-05-10T17:32:05;10.82;;;4.30;;
72404;SDS011;60395;52.020;113.548;2023-05-10T17:35:10;9.60;;;4.15;;
72404;SDS011;60395;52.020;113.548;2023-05-10T17:38:14;6.65;;;4.00;;
72404;SDS011;60395;52.020;113.548;2023-05-10T17:41:17;8.20;;;4.00;;
72404;SDS011;60395;52.020;113.548;2023-05-10T17:44:20;9.25;;;4.25;;
72404;SDS011;60395;52.020;113.548;2023-05-10T17:47:23;7.30;;;4.05;;
72404;SDS011;60395;52.020;113.548;2023-05-10T17:50:27;9.07;;;4.53;;
72404;SDS011;60395;52.020;113.548;2023-05-10T17:53:30;9.48;;;4.30;;
72404;SDS011;60395;52.020;113.548;2023-05-10T17:56:33;7.85;;;4.22;;
72404;SDS011;60395;52.020;113.548;2023-05-10T17:59:37;11.32;;;4.65;;
72404;SDS011;60395;52.020;113.548;2023-05-10T18:02:40;9.68;;;4.43;;
72404;SDS011;60395;52.020;113.548;2023-05-10T18:05:44;8.10;;;4.00;;
72404;SDS011;60395;52.020;113.548;2023-05-10T18:08:48;5.28;;;4.00;;
72404;SDS011;60395;52.020;113.548;2023-05-10T18:11:51;9.60;;;4.30;;
72404;SDS011;60395;52.020;113.548;2023-05-10T18:14:55;7.70;;;4.07;;
72404;SDS011;60395;52.020;113.548;2023-05-10T18:18:02;7.72;;;4.10;;
72404;SDS011;60395;52.020;113.548;2023-05-10T18:21:06;15.65;;;3.90;;
72404;SDS011;60395;52.020;113.548;2023-05-10T18:24:09;11.82;;;3.95;;